createdAt,value
2022-10-29T00:01:14.994Z,12.75
2022-10-29T00:03:44.621Z,12.72
2022-10-29T00:06:13.849Z,12.69
2022-10-29T00:08:43.558Z,12.67
2022-10-29T00:11:13.859Z,12.67
2022-10-29T00:13:42.684Z,12.64
2022-10-29T00:16:13.993Z,12.59
2022-10-29T00:18:42.410Z,12.56
2022-10-29T00:21:13.929Z,12.58
2022-10-29T00:23:42.876Z,12.56
2022-10-29T00:26:11.904Z,12.53
2022-10-29T00:28:40.548Z,12.52
2022-10-29T00:31:12.700Z,12.51
2022-10-29T00:33:43.466Z,12.50
2022-10-29T00:36:15.438Z,12.46
2022-10-29T00:38:43.988Z,12.44
2022-10-29T00:41:14.209Z,12.42
2022-10-29T00:43:47.727Z,12.41
2022-10-29T00:46:22.401Z,12.42
2022-10-29T00:48:55.053Z,12.07
2022-10-29T00:51:24.299Z,12.42
2022-10-29T00:53:56.400Z,12.39
2022-10-29T00:56:29.080Z,11.93
2022-10-29T00:58:57.595Z,12.29
2022-10-29T01:01:26.319Z,12.26
2022-10-29T01:03:56.739Z,12.23
2022-10-29T01:06:26.484Z,12.20
2022-10-29T01:08:54.936Z,12.18
2022-10-29T01:11:36.692Z,12.19
2022-10-29T01:14:17.580Z,12.19
2022-10-29T01:16:53.761Z,12.19
2022-10-29T01:19:37.462Z,12.13
2022-10-29T01:22:09.085Z,12.12
2022-10-29T01:25:33.977Z,12.09
2022-10-29T01:28:15.253Z,11.42
2022-10-29T01:31:16.235Z,12.05
2022-10-29T01:33:54.384Z,12.05
2022-10-29T01:36:30.925Z,12.07
2022-10-29T01:39:07.971Z,12.04
2022-10-29T01:41:48.623Z,12.01
2022-10-29T01:44:31.327Z,11.97
2022-10-29T01:47:02.393Z,11.93
2022-10-29T01:49:39.800Z,11.92
2022-10-29T01:52:12.512Z,11.89
2022-10-29T01:54:42.747Z,11.89
2022-10-29T01:57:32.460Z,11.84
2022-10-29T02:00:05.533Z,11.84
2022-10-29T02:02:58.790Z,11.83
2022-10-29T02:05:35.976Z,11.78
2022-10-29T02:08:15.514Z,11.80
2022-10-29T02:10:52.448Z,11.56
2022-10-29T02:13:24.638Z,11.80
2022-10-29T02:15:55.666Z,11.62
2022-10-29T02:18:24.410Z,11.73
2022-10-29T02:20:54.140Z,11.77
2022-10-29T02:23:22.482Z,11.74
2022-10-29T02:25:50.767Z,11.71
2022-10-29T02:30:52.350Z,11.39
2022-10-29T02:33:21.672Z,11.67
2022-10-29T02:35:49.897Z,11.66
2022-10-29T02:38:19.476Z,11.64
2022-10-29T02:40:47.744Z,11.58
2022-10-29T02:43:17.106Z,11.56
2022-10-29T02:45:45.442Z,11.50
2022-10-29T02:48:13.683Z,11.56
2022-10-29T02:50:41.955Z,11.50
2022-10-29T02:53:10.153Z,11.51
2022-10-29T02:55:39.884Z,11.49
2022-10-29T02:58:08.148Z,11.47
2022-10-29T03:00:36.442Z,11.45
2022-10-29T03:03:04.836Z,11.36
2022-10-29T03:05:33.181Z,11.44
2022-10-29T03:08:01.452Z,11.44
2022-10-29T03:10:29.751Z,11.42
2022-10-29T03:13:01.357Z,11.42
2022-10-29T03:15:29.787Z,11.41
2022-10-29T03:17:58.352Z,11.37
2022-10-29T03:20:26.803Z,11.32
2022-10-29T03:22:56.088Z,11.31
2022-10-29T03:25:24.421Z,11.27
2022-10-29T03:27:53.291Z,11.23
2022-10-29T03:30:23.285Z,11.23
2022-10-29T03:32:52.714Z,11.22
2022-10-29T03:35:21.067Z,11.19
2022-10-29T03:37:51.017Z,11.18
2022-10-29T03:40:19.810Z,11.15
2022-10-29T03:42:48.076Z,11.11
2022-10-29T03:45:16.436Z,11.09
2022-10-29T03:47:46.027Z,11.10
2022-10-29T03:50:14.525Z,11.13
2022-10-29T03:52:42.788Z,11.11
2022-10-29T03:55:11.272Z,11.08
2022-10-29T03:57:39.520Z,10.32
2022-10-29T04:00:08.773Z,10.99
2022-10-29T04:02:46.172Z,10.95
2022-10-29T04:05:14.590Z,10.97
2022-10-29T04:07:42.797Z,10.97
2022-10-29T04:10:11.201Z,10.98
2022-10-29T04:12:40.458Z,10.96
2022-10-29T04:15:09.360Z,10.93
2022-10-29T04:17:37.520Z,10.89
2022-10-29T04:20:14.544Z,10.87
2022-10-29T04:24:48.651Z,10.84
2022-10-29T04:28:48.013Z,10.83
2022-10-29T04:31:16.343Z,10.84
2022-10-29T04:33:44.839Z,10.70
2022-10-29T04:36:14.611Z,10.83
2022-10-29T04:38:42.921Z,10.59
2022-10-29T04:41:11.155Z,10.76
2022-10-29T04:43:39.349Z,10.73
2022-10-29T04:46:07.613Z,10.74
2022-10-29T04:48:35.950Z,10.75
2022-10-29T04:51:04.368Z,10.75
2022-10-29T04:53:34.304Z,10.67
2022-10-29T04:56:05.704Z,10.66
2022-10-29T04:58:34.033Z,10.39
2022-10-29T05:01:05.236Z,10.70
2022-10-29T05:03:34.369Z,10.68
2022-10-29T05:06:04.012Z,10.69
2022-10-29T05:08:34.073Z,9.84
2022-10-29T05:11:04.055Z,10.69
2022-10-29T05:13:33.007Z,10.69
2022-10-29T05:16:01.758Z,10.65
2022-10-29T05:18:30.029Z,10.52
2022-10-29T05:20:59.058Z,10.61
2022-10-29T05:23:27.417Z,10.60
2022-10-29T05:25:57.387Z,10.60
2022-10-29T05:28:25.962Z,10.55
2022-10-29T05:30:54.988Z,10.57
2022-10-29T05:33:24.571Z,10.23
2022-10-29T05:35:53.301Z,10.56
2022-10-29T05:38:21.599Z,10.54
2022-10-29T05:40:49.919Z,10.46
2022-10-29T05:43:20.455Z,10.54
2022-10-29T05:45:48.711Z,10.53
2022-10-29T05:48:17.055Z,10.56
2022-10-29T05:50:45.690Z,10.51
2022-10-29T05:53:16.355Z,10.56
2022-10-29T05:55:44.649Z,10.48
2022-10-29T05:58:14.777Z,10.50
2022-10-29T06:00:46.481Z,10.48
2022-10-29T06:03:17.063Z,10.46
2022-10-29T06:05:45.558Z,10.44
2022-10-29T06:08:13.991Z,10.41
2022-10-29T06:10:42.551Z,10.43
2022-10-29T06:13:12.337Z,10.47
2022-10-29T06:15:40.659Z,10.48
2022-10-29T06:18:10.912Z,10.49
2022-10-29T06:20:40.179Z,10.49
2022-10-29T06:23:08.516Z,10.48
2022-10-29T06:25:36.773Z,10.48
2022-10-29T06:28:06.860Z,10.49
2022-10-29T06:30:37.080Z,10.17
2022-10-29T06:33:06.365Z,10.48
2022-10-29T06:38:12.227Z,10.51
2022-10-29T06:40:40.969Z,10.49
2022-10-29T06:43:11.643Z,10.23
2022-10-29T06:45:40.390Z,10.53
2022-10-29T06:48:10.363Z,10.56
2022-10-29T06:50:40.104Z,10.61
2022-10-29T06:53:11.093Z,10.66
2022-10-29T06:55:39.419Z,10.72
2022-10-29T06:58:12.470Z,10.76
2022-10-29T07:00:41.658Z,10.75
2022-10-29T07:03:13.106Z,10.81
2022-10-29T07:05:43.052Z,10.89
2022-10-29T07:08:11.288Z,10.96
2022-10-29T07:10:40.168Z,11.01
2022-10-29T07:13:08.388Z,11.08
2022-10-29T07:15:36.692Z,10.52
2022-10-29T07:18:07.181Z,11.22
2022-10-29T07:20:37.581Z,10.79
2022-10-29T07:23:07.709Z,11.46
2022-10-29T07:25:37.580Z,11.65
2022-10-29T07:28:06.725Z,11.82
2022-10-29T07:30:35.892Z,12.01
2022-10-29T07:33:04.355Z,12.21
2022-10-29T07:35:32.643Z,12.41
2022-10-29T07:38:05.275Z,12.57
2022-10-29T07:40:48.163Z,12.51
2022-10-29T07:43:17.989Z,12.97
2022-10-29T07:45:49.913Z,13.12
2022-10-29T07:48:20.906Z,13.30
2022-10-29T07:50:49.511Z,13.38
2022-10-29T07:53:17.993Z,13.41
2022-10-29T07:55:53.829Z,13.57
2022-10-29T07:58:22.213Z,13.66
2022-10-29T08:00:51.265Z,13.78
2022-10-29T08:03:19.987Z,13.72
2022-10-29T08:05:56.210Z,14.00
2022-10-29T08:08:27.181Z,14.11
2022-10-29T08:11:02.246Z,14.22
2022-10-29T08:13:30.715Z,14.30
2022-10-29T08:16:00.022Z,14.40
2022-10-29T08:18:28.595Z,14.47
2022-10-29T08:20:56.816Z,14.56
2022-10-29T08:23:25.147Z,14.65
2022-10-29T08:25:53.423Z,14.80
2022-10-29T08:28:25.677Z,14.92
2022-10-29T08:30:54.376Z,15.00
2022-10-29T08:33:22.557Z,15.09
2022-10-29T08:35:50.965Z,15.19
2022-10-29T08:38:19.354Z,15.30
2022-10-29T08:41:08.236Z,15.40
2022-10-29T08:44:03.698Z,15.48
2022-10-29T08:46:49.136Z,15.58
2022-10-29T08:49:21.370Z,15.70
2022-10-29T08:51:56.873Z,15.81
2022-10-29T08:54:32.254Z,15.91
2022-10-29T08:57:07.463Z,15.99
2022-10-29T08:59:44.962Z,16.06
2022-10-29T09:02:18.293Z,16.15
2022-10-29T09:04:46.775Z,16.22
2022-10-29T09:07:28.800Z,16.31
2022-10-29T09:10:05.513Z,16.38
2022-10-29T09:12:45.594Z,16.45
2022-10-29T09:15:27.135Z,16.35
2022-10-29T09:18:10.432Z,16.62
2022-10-29T09:20:52.155Z,16.71
2022-10-29T09:23:30.843Z,16.80
2022-10-29T09:26:04.345Z,16.87
2022-10-29T09:28:49.533Z,16.98
2022-10-29T09:31:28.923Z,17.06
2022-10-29T09:34:03.918Z,17.13
2022-10-29T09:36:33.024Z,17.21
2022-10-29T09:39:03.911Z,17.15
2022-10-29T09:41:33.698Z,17.21
2022-10-29T09:44:09.109Z,17.45
2022-10-29T09:46:47.291Z,17.53
2022-10-29T09:49:35.930Z,17.58
2022-10-29T09:52:08.204Z,17.64
2022-10-29T09:54:36.765Z,17.73
2022-10-29T09:57:07.352Z,17.83
2022-10-29T09:59:41.374Z,17.94
2022-10-29T10:02:34.255Z,18.01
2022-10-29T10:05:08.500Z,18.07
2022-10-29T10:07:36.799Z,18.15
2022-10-29T10:10:07.027Z,18.07
2022-10-29T10:12:47.073Z,18.11
2022-10-29T10:15:26.084Z,18.42
2022-10-29T10:17:58.739Z,18.45
2022-10-29T10:20:32.175Z,18.53
2022-10-29T10:23:00.687Z,18.58
2022-10-29T10:25:37.811Z,18.42
2022-10-29T10:28:18.301Z,18.64
2022-10-29T10:30:47.278Z,18.80
2022-10-29T10:33:35.039Z,18.89
2022-10-29T10:36:07.069Z,18.94
2022-10-29T10:38:47.808Z,19.02
2022-10-29T10:41:22.837Z,19.11
2022-10-29T10:43:51.452Z,19.20
2022-10-29T10:46:25.449Z,19.30
2022-10-29T10:49:04.867Z,19.33
2022-10-29T10:51:34.770Z,19.40
2022-10-29T10:54:21.706Z,19.43
2022-10-29T10:56:58.888Z,19.47
2022-10-29T10:59:40.549Z,19.55
2022-10-29T11:02:22.054Z,19.63
2022-10-29T11:05:02.132Z,19.73
2022-10-29T11:07:37.454Z,19.75
2022-10-29T11:10:08.669Z,19.94
2022-10-29T11:12:42.311Z,20.00
2022-10-29T11:15:17.015Z,20.04
2022-10-29T11:17:54.294Z,20.07
2022-10-29T11:20:28.308Z,20.15
2022-10-29T11:23:10.235Z,20.22
2022-10-29T11:25:45.631Z,20.24
2022-10-29T11:28:24.316Z,20.31
2022-10-29T11:30:59.799Z,20.33
2022-10-29T11:33:42.311Z,20.39
2022-10-29T11:36:18.383Z,20.44
2022-10-29T11:38:52.028Z,20.51
2022-10-29T11:41:28.224Z,20.57
2022-10-29T11:43:56.545Z,20.63
2022-10-29T11:46:34.073Z,20.68
2022-10-29T11:49:17.907Z,20.74
2022-10-29T11:51:55.336Z,20.80
2022-10-29T11:54:37.930Z,20.86
2022-10-29T11:57:16.949Z,20.89
2022-10-29T12:00:02.433Z,20.97
2022-10-29T12:03:18.891Z,21.05
2022-10-29T12:05:58.481Z,21.13
2022-10-29T12:08:39.692Z,21.21
2022-10-29T12:11:13.814Z,21.27
2022-10-29T12:13:53.074Z,21.37
2022-10-29T12:16:43.933Z,21.43
2022-10-29T12:19:28.060Z,21.49
2022-10-29T12:22:02.604Z,21.51
2022-10-29T12:24:47.822Z,21.54
2022-10-29T12:27:22.207Z,21.60
2022-10-29T12:29:59.061Z,21.69
2022-10-29T12:32:33.297Z,21.72
2022-10-29T12:35:07.734Z,21.77
2022-10-29T12:37:44.348Z,21.79
2022-10-29T12:40:21.101Z,21.83
2022-10-29T12:42:50.780Z,21.70
2022-10-29T12:45:32.294Z,21.87
2022-10-29T12:48:06.909Z,21.91
2022-10-29T12:50:45.125Z,21.93
2022-10-29T12:53:27.916Z,21.95
2022-10-29T12:55:59.362Z,21.93
2022-10-29T12:58:48.836Z,21.95
2022-10-29T13:04:36.300Z,21.88
2022-10-29T13:07:07.341Z,21.94
2022-10-29T13:09:37.640Z,21.91
2022-10-29T13:12:11.584Z,21.88
2022-10-29T13:14:43.026Z,21.88
2022-10-29T13:17:33.301Z,20.96
2022-10-29T13:20:05.880Z,21.86
2022-10-29T13:22:55.005Z,21.93
2022-10-29T13:25:48.775Z,21.94
2022-10-29T13:28:53.343Z,21.95
2022-10-29T13:31:50.303Z,21.95
2022-10-29T13:34:57.061Z,21.96
2022-10-29T13:38:02.900Z,21.99
2022-10-29T13:41:12.285Z,21.98
2022-10-29T13:43:42.953Z,21.99
2022-10-29T13:46:33.800Z,22.03
2022-10-29T13:49:07.828Z,22.03
2022-10-29T13:51:44.152Z,22.07
2022-10-29T13:54:20.153Z,22.10
2022-10-29T13:56:54.208Z,22.08
2022-10-29T13:59:31.787Z,21.91
2022-10-29T14:02:17.396Z,22.07
2022-10-29T14:04:51.824Z,22.06
2022-10-29T14:07:24.991Z,22.07
2022-10-29T14:09:57.307Z,22.06
2022-10-29T14:12:31.020Z,22.03
2022-10-29T14:15:05.200Z,22.00
2022-10-29T14:17:34.978Z,21.97
2022-10-29T14:20:03.283Z,21.99
2022-10-29T14:22:35.736Z,22.01
2022-10-29T14:25:26.149Z,22.00
2022-10-29T14:28:10.374Z,21.97
2022-10-29T14:30:38.666Z,21.98
2022-10-29T14:33:24.494Z,21.97
2022-10-29T14:35:54.855Z,21.92
2022-10-29T14:38:29.118Z,21.89
2022-10-29T14:40:57.551Z,21.85
2022-10-29T14:43:28.408Z,21.83
2022-10-29T14:45:57.651Z,21.77
2022-10-29T14:48:27.390Z,21.76
2022-10-29T14:50:56.751Z,21.74
2022-10-29T14:53:31.516Z,21.72
2022-10-29T14:56:01.383Z,21.69
2022-10-29T14:58:32.278Z,21.66
2022-10-29T15:01:02.497Z,21.62
2022-10-29T15:03:35.125Z,21.57
2022-10-29T15:06:16.341Z,21.50
2022-10-29T15:08:46.403Z,21.40
2022-10-29T15:11:36.905Z,21.32
2022-10-29T15:14:07.324Z,21.02
2022-10-29T15:16:38.321Z,21.14
2022-10-29T15:19:16.660Z,21.08
2022-10-29T15:21:45.919Z,20.99
2022-10-29T15:24:20.673Z,20.89
2022-10-29T15:26:51.236Z,20.79
2022-10-29T15:29:29.130Z,20.75
2022-10-29T15:32:00.759Z,20.65
2022-10-29T15:34:33.713Z,20.58
2022-10-29T15:37:16.795Z,20.50
2022-10-29T15:40:03.515Z,20.25
2022-10-29T15:42:33.624Z,20.26
2022-10-29T15:45:23.828Z,20.20
2022-10-29T15:47:53.964Z,20.05
2022-10-29T15:50:26.027Z,20.00
2022-10-29T15:52:58.010Z,19.91
2022-10-29T15:55:30.026Z,19.86
2022-10-29T15:58:02.985Z,19.83
2022-10-29T16:00:32.468Z,19.80
2022-10-29T16:03:12.278Z,19.73
2022-10-29T16:05:42.461Z,19.50
2022-10-29T16:08:25.888Z,19.56
2022-10-29T16:10:55.181Z,19.48
2022-10-29T16:13:24.458Z,19.45
2022-10-29T16:15:53.104Z,18.95
2022-10-29T16:18:21.438Z,19.27
2022-10-29T16:20:53.237Z,19.18
2022-10-29T16:23:21.512Z,19.08
2022-10-29T16:25:49.694Z,18.99
2022-10-29T16:28:17.955Z,18.90
2022-10-29T16:30:49.548Z,18.84
2022-10-29T16:33:19.052Z,18.79
2022-10-29T16:35:47.236Z,18.71
2022-10-29T16:38:18.687Z,18.60
2022-10-29T16:40:47.179Z,18.50
2022-10-29T16:43:15.522Z,18.44
2022-10-29T16:45:44.154Z,18.39
2022-10-29T16:48:12.410Z,18.40
2022-10-29T16:50:40.770Z,18.37
2022-10-29T16:53:11.263Z,18.34
2022-10-29T16:55:42.178Z,18.27
2022-10-29T16:58:13.072Z,18.17
2022-10-29T17:00:41.448Z,18.13
2022-10-29T17:03:12.743Z,18.07
2022-10-29T17:05:44.300Z,17.97
2022-10-29T17:08:13.357Z,17.85
2022-10-29T17:10:42.957Z,17.82
2022-10-29T17:13:11.877Z,17.74
2022-10-29T17:15:41.066Z,17.61
2022-10-29T17:18:09.496Z,17.52
2022-10-29T17:20:37.783Z,17.47
2022-10-29T17:23:06.032Z,17.45
2022-10-29T17:25:34.286Z,17.46
2022-10-29T17:28:04.625Z,17.41
2022-10-29T17:30:33.950Z,17.27
2022-10-29T17:33:02.244Z,17.29
2022-10-29T17:35:30.505Z,17.19
2022-10-29T17:37:58.774Z,17.16
2022-10-29T17:40:27.212Z,17.06
2022-10-29T17:42:55.794Z,16.88
2022-10-29T17:45:25.678Z,17.00
2022-10-29T17:47:56.712Z,16.89
2022-10-29T17:50:26.238Z,16.84
2022-10-29T17:52:54.979Z,16.74
2022-10-29T17:55:23.264Z,16.69
2022-10-29T17:57:51.549Z,16.66
2022-10-29T18:00:20.348Z,16.58
2022-10-29T18:02:51.545Z,16.51
2022-10-29T18:05:19.910Z,16.43
2022-10-29T18:07:48.176Z,16.43
2022-10-29T18:10:17.297Z,16.39
2022-10-29T18:12:45.529Z,16.39
2022-10-29T18:15:13.849Z,16.35
2022-10-29T18:17:42.122Z,16.29
2022-10-29T18:20:12.636Z,16.25
2022-10-29T18:22:40.897Z,16.20
2022-10-29T18:25:10.351Z,16.13
2022-10-29T18:27:40.241Z,16.07
2022-10-29T18:30:09.990Z,16.02
2022-10-29T18:32:38.252Z,16.00
2022-10-29T18:35:07.283Z,16.00
2022-10-29T18:37:37.033Z,15.96
2022-10-29T18:40:06.018Z,15.88
2022-10-29T18:42:34.393Z,15.84
2022-10-29T18:45:02.637Z,15.85
2022-10-29T18:47:30.911Z,15.78
2022-10-29T18:49:59.166Z,15.70
2022-10-29T18:52:27.384Z,15.64
2022-10-29T18:54:57.052Z,15.60
2022-10-29T18:57:25.394Z,15.56
2022-10-29T18:59:53.584Z,15.32
2022-10-29T19:02:21.933Z,15.44
2022-10-29T19:04:50.203Z,15.38
2022-10-29T19:07:18.518Z,15.38
2022-10-29T19:09:46.923Z,15.38
2022-10-29T19:12:16.586Z,15.38
2022-10-29T19:14:44.877Z,15.34
2022-10-29T19:17:13.059Z,15.29
2022-10-29T19:19:41.337Z,15.22
2022-10-29T19:22:09.632Z,15.15
2022-10-29T19:24:37.864Z,15.10
2022-10-29T19:27:06.454Z,15.08
2022-10-29T19:29:36.443Z,15.07
2022-10-29T19:32:04.825Z,15.02
2022-10-29T19:34:33.117Z,14.99
2022-10-29T19:37:01.462Z,14.91
2022-10-29T19:39:29.716Z,14.89
2022-10-29T19:41:57.950Z,14.86
2022-10-29T19:44:26.238Z,14.86
2022-10-29T19:46:55.865Z,14.83
2022-10-29T19:49:24.130Z,14.80
2022-10-29T19:51:53.189Z,14.80
2022-10-29T19:54:21.396Z,14.75
2022-10-29T19:56:49.635Z,14.73
2022-10-29T19:59:17.866Z,14.69
2022-10-29T20:01:48.615Z,14.66
2022-10-29T20:04:18.626Z,14.62
2022-10-29T20:06:48.403Z,14.60
2022-10-29T20:09:16.655Z,14.53
2022-10-29T20:11:44.929Z,14.54
2022-10-29T20:14:13.154Z,14.49
2022-10-29T20:16:41.696Z,14.45
2022-10-29T20:19:11.321Z,14.45
2022-10-29T20:21:40.970Z,14.44
2022-10-29T20:24:09.429Z,14.45
2022-10-29T20:26:37.698Z,14.45
2022-10-29T20:29:05.996Z,14.31
2022-10-29T20:31:40.145Z,14.34
2022-10-29T20:34:10.537Z,14.27
2022-10-29T20:36:40.407Z,14.21
2022-10-29T20:39:08.893Z,14.21
2022-10-29T20:41:37.486Z,14.20
2022-10-29T20:44:05.965Z,14.17
2022-10-29T20:46:36.114Z,14.15
2022-10-29T20:49:07.665Z,14.15
2022-10-29T20:51:35.951Z,14.14
2022-10-29T20:54:06.134Z,14.14
2022-10-29T20:56:34.510Z,14.09
2022-10-29T20:59:03.858Z,14.07
2022-10-29T21:01:32.348Z,14.01
2022-10-29T21:04:00.717Z,13.96
2022-10-29T21:06:30.007Z,13.74
2022-10-29T21:08:58.321Z,13.89
2022-10-29T21:11:27.982Z,13.88
2022-10-29T21:13:56.190Z,13.92
2022-10-29T21:16:27.393Z,13.77
2022-10-29T21:18:57.235Z,13.93
2022-10-29T21:21:26.153Z,13.88
2022-10-29T21:23:54.767Z,13.86
2022-10-29T21:26:24.754Z,13.80
2022-10-29T21:28:55.482Z,13.73
2022-10-29T21:31:24.606Z,13.65
2022-10-29T21:33:53.156Z,13.55
2022-10-29T21:36:22.099Z,13.59
2022-10-29T21:38:50.466Z,13.60
2022-10-29T21:41:19.385Z,13.60
2022-10-29T21:43:47.644Z,13.63
2022-10-29T21:46:17.393Z,13.62
2022-10-29T21:48:45.673Z,13.61
2022-10-29T21:51:16.225Z,13.68
2022-10-29T21:53:44.679Z,13.67
2022-10-29T21:56:14.862Z,13.64
2022-10-29T21:58:43.436Z,13.61
2022-10-29T22:01:13.994Z,13.59
2022-10-29T22:03:47.424Z,13.51
2022-10-29T22:06:17.698Z,13.44
2022-10-29T22:08:46.889Z,13.40
2022-10-29T22:11:16.317Z,13.35
2022-10-29T22:13:44.646Z,13.34
2022-10-29T22:16:13.135Z,13.33
2022-10-29T22:18:41.625Z,13.34
2022-10-29T22:21:15.184Z,13.23
2022-10-29T22:23:44.646Z,13.42
2022-10-29T22:26:13.369Z,13.36
2022-10-29T22:28:41.834Z,13.16
2022-10-29T22:31:10.167Z,13.48
2022-10-29T22:33:38.354Z,13.55
2022-10-29T22:36:08.990Z,13.62
2022-10-29T22:38:39.160Z,13.67
2022-10-29T22:41:08.964Z,13.52
2022-10-29T22:43:37.523Z,13.70
2022-10-29T22:46:07.573Z,13.69
2022-10-29T22:48:36.225Z,13.67
2022-10-29T22:51:07.258Z,13.72
2022-10-29T22:53:35.919Z,13.74
2022-10-29T22:56:06.624Z,13.78
2022-10-29T22:58:35.008Z,13.62
2022-10-29T23:01:05.453Z,13.87
2022-10-29T23:03:34.584Z,13.89
2022-10-29T23:06:05.104Z,13.92
2022-10-29T23:08:34.978Z,13.93
2022-10-29T23:11:07.469Z,13.97
2022-10-29T23:13:36.093Z,13.97
2022-10-29T23:16:04.668Z,14.00
2022-10-29T23:18:32.968Z,14.01
2022-10-29T23:21:01.960Z,14.01
2022-10-29T23:23:30.806Z,14.00
2022-10-29T23:26:01.800Z,13.98
2022-10-29T23:28:32.600Z,13.97
2022-10-29T23:31:03.135Z,13.95
2022-10-29T23:33:32.429Z,13.98
2022-10-29T23:36:05.388Z,14.05
2022-10-29T23:38:34.687Z,14.08
2022-10-29T23:41:03.583Z,14.08
2022-10-29T23:43:33.325Z,14.11
2022-10-29T23:46:01.608Z,14.13
2022-10-29T23:48:30.052Z,14.12
2022-10-29T23:50:58.290Z,14.13
2022-10-29T23:53:26.669Z,14.16
2022-10-29T23:55:54.991Z,14.19
2022-10-29T23:58:23.333Z,14.18
